Time;durP1;ratioP1;P1;durP2;ratioP2;P2;SDS_P1;SDS_P2;PMS_P1;PMS_P2;Temp;Humidity;BMP_temperature;BMP_pressure;BME280_temperature;BME280_humidity;BME280_pressure;Samples;Min_cycle;Max_cycle;Signal;HPM_P1;HPM_P2
2022/01/20 00:00:20;;;;;;;1.00;1.00;;;;;;;2.50;94.73;99515.13;4877363;29;20101;-70
2022/01/20 00:03:30;;;;;;;0.70;0.70;;;;;;;2.52;95.00;99513.50;4886220;29;20461;-70
2022/01/20 00:27:55;;;;;;;1.98;1.88;;;;;;;2.52;97.94;99513.50;4895573;29;20478;-70
2022/01/20 00:37:43;;;;;;;1.60;1.50;;;;;;;2.43;97.97;99511.53;4897363;29;20036;-70
2022/01/20 00:40:09;;;;;;;2.28;1.38;;;;;;;2.53;98.52;99512.66;4899748;29;20029;-70
2022/01/20 00:42:35;;;;;;;0.93;0.93;;;;;;;2.56;98.19;99508.50;4899874;29;20043;-70
2022/01/20 00:45:01;;;;;;;1.02;1.02;;;;;;;2.39;97.99;99514.84;4899781;29;20025;-70
2022/01/20 00:47:26;;;;;;;1.45;1.38;;;;;;;2.36;98.66;99513.88;4899644;29;20119;-70
2022/01/20 00:49:52;;;;;;;2.38;1.60;;;;;;;2.26;98.69;99523.88;4899870;29;20111;-70
2022/01/20 00:52:17;;;;;;;1.00;1.00;;;;;;;2.45;98.42;99532.03;4899726;29;20028;-70
2022/01/20 00:54:42;;;;;;;1.30;1.20;;;;;;;2.55;98.90;99532.31;4899638;29;20047;-70
2022/01/20 00:57:08;;;;;;;0.98;0.98;;;;;;;2.38;97.84;99537.81;4899536;29;20040;-70
2022/01/20 00:59:33;;;;;;;2.50;1.38;;;;;;;2.31;97.94;99542.75;4899372;29;20565;-70
2022/01/20 05:16:12;;;;;;;1.45;1.35;;;;;;;2.71;100.00;99497.78;5525089;23;20063;-70
2022/01/20 05:18:38;;;;;;;0.82;0.82;;;;;;;2.77;100.00;99513.28;4918409;29;20040;-71
2022/01/20 05:21:03;;;;;;;0.60;0.60;;;;;;;2.65;100.00;99502.72;4918012;29;20021;-70
2022/01/20 05:23:28;;;;;;;1.35;1.25;;;;;;;2.78;100.00;99509.88;4917970;29;20079;-70
2022/01/20 05:25:54;;;;;;;0.95;0.95;;;;;;;2.71;100.00;99507.16;4916926;29;20055;-70
2022/01/20 05:28:19;;;;;;;1.17;1.08;;;;;;;2.72;100.00;99514.84;4942124;23;20036;-68
2022/01/20 05:30:45;;;;;;;0.70;0.70;;;;;;;2.74;100.00;99508.06;4916705;29;20044;-69
2022/01/20 05:33:10;;;;;;;0.63;0.63;;;;;;;2.73;100.00;99506.34;4897638;29;20070;-69
2022/01/20 05:35:36;;;;;;;1.08;1.08;;;;;;;2.62;100.00;99518.00;4921739;29;20401;-69
2022/01/20 05:38:01;;;;;;;0.68;0.68;;;;;;;2.61;100.00;99516.28;4917821;29;20032;-69
2022/01/20 05:40:27;;;;;;;1.15;1.15;;;;;;;2.78;100.00;99515.00;4917688;29;20032;-69
2022/01/20 05:42:52;;;;;;;1.63;1.52;;;;;;;2.66;100.00;99522.38;4917806;29;20115;-69
2022/01/20 05:45:18;;;;;;;4.00;2.10;;;;;;;2.64;100.00;99531.69;4917681;29;20115;-68
2022/01/20 05:47:46;;;;;;;0.80;0.80;;;;;;;2.66;100.00;99535.16;4917697;29;20024;-70
2022/01/20 05:50:18;;;;;;;0.80;0.80;;;;;;;2.85;100.00;99531.34;4917657;29;20438;-70
2022/01/20 05:52:46;;;;;;;0.70;0.70;;;;;;;2.82;100.00;99536.41;4917642;29;20043;-70
2022/01/20 05:55:17;;;;;;;2.00;1.10;;;;;;;2.77;100.00;99541.41;4917487;29;20036;-70
2022/01/20 05:57:42;;;;;;;0.60;0.60;;;;;;;2.93;100.00;99531.56;4917363;29;20028;-70
2022/01/20 06:00:11;;;;;;;0.70;0.70;;;;;;;2.82;100.00;99534.72;4917359;29;20083;-71
2022/01/20 06:03:36;;;;;;;0.50;0.50;;;;;;;2.82;100.00;99527.03;4917190;29;20017;-70
2022/01/20 06:05:23;;;;;;;0.65;0.65;;;;;;;2.77;100.00;99533.75;4910535;29;20275;-70
2022/01/20 06:07:49;;;;;;;1.52;1.05;;;;;;;2.99;100.00;99530.00;4916995;29;20032;-70
2022/01/20 06:10:14;;;;;;;0.60;0.60;;;;;;;2.99;100.00;99519.75;4917214;29;20032;-70
2022/01/20 06:12:39;;;;;;;0.70;0.70;;;;;;;2.94;100.00;99533.28;4917152;29;20404;-72
2022/01/20 06:15:05;;;;;;;0.93;0.93;;;;;;;2.96;100.00;99531.66;4917186;29;20473;-71
2022/01/20 06:17:34;;;;;;;1.20;0.60;;;;;;;2.97;100.00;99535.94;4915866;29;20047;-71
2022/01/20 06:19:59;;;;;;;0.60;0.60;;;;;;;2.99;100.00;99524.03;4916933;29;20466;-71
2022/01/20 06:22:25;;;;;;;1.85;1.75;;;;;;;2.96;100.00;99518.84;4916814;29;20059;-71
2022/01/20 06:24:50;;;;;;;0.77;0.77;;;;;;;2.97;100.00;99523.13;4917025;29;20379;-71
2022/01/20 06:27:16;;;;;;;1.00;1.00;;;;;;;2.81;100.00;99519.34;4916697;29;20107;-71
2022/01/20 06:29:41;;;;;;;0.60;0.60;;;;;;;2.89;100.00;99522.06;4916582;29;20047;-71
2022/01/20 06:32:07;;;;;;;0.93;0.93;;;;;;;2.91;100.00;99515.31;4915813;29;20060;-71
2022/01/20 06:34:33;;;;;;;0.88;0.88;;;;;;;2.78;100.00;99507.31;4916726;29;20028;-72
2022/01/20 06:36:58;;;;;;;0.88;0.88;;;;;;;2.83;100.00;99512.56;4916345;29;20504;-72
2022/01/20 06:39:24;;;;;;;1.15;1.05;;;;;;;2.70;100.00;99524.16;4915712;29;20043;-71
2022/01/20 06:41:50;;;;;;;0.70;0.70;;;;;;;2.59;100.00;99548.63;4916672;29;20512;-71
2022/01/20 06:44:15;;;;;;;0.50;0.50;;;;;;;2.70;100.00;99519.03;4916518;29;20044;-71
2022/01/20 06:46:41;;;;;;;0.65;0.65;;;;;;;2.78;100.00;99509.88;4916537;29;20028;-71
2022/01/20 06:49:06;;;;;;;1.02;1.02;;;;;;;2.82;100.00;99516.81;4916494;29;20028;-71
2022/01/20 06:51:32;;;;;;;3.13;1.95;;;;;;;2.78;100.00;99525.22;4915635;29;20028;-72
2022/01/20 06:53:58;;;;;;;1.20;1.20;;;;;;;2.89;100.00;99520.38;4916474;29;20115;-71
2022/01/20 06:56:24;;;;;;;0.88;0.88;;;;;;;2.98;100.00;99523.16;4916903;29;20024;-71
2022/01/20 06:58:49;;;;;;;1.23;1.23;;;;;;;2.91;100.00;99525.56;4916281;29;20028;-72
2022/01/20 07:01:16;;;;;;;3.42;1.48;;;;;;;2.90;100.00;99528.91;4916469;29;20107;-71
2022/01/20 07:03:41;;;;;;;0.80;0.80;;;;;;;2.89;100.00;99522.06;4916155;29;20398;-71
2022/01/20 07:06:06;;;;;;;3.63;2.17;;;;;;;2.94;100.00;99517.94;4916004;29;20031;-71
2022/01/20 07:08:32;;;;;;;1.80;1.25;;;;;;;2.74;100.00;99523.41;4916151;29;20043;-71
2022/01/20 07:10:57;;;;;;;5.00;4.45;;;;;;;2.79;100.00;99542.31;4916209;29;20023;-71
2022/01/20 07:13:22;;;;;;;1.33;1.20;;;;;;;2.79;100.00;99544.88;4916169;29;20067;-71
2022/01/20 07:15:48;;;;;;;1.48;1.38;;;;;;;2.83;100.00;99548.38;4915091;29;20489;-71
2022/01/20 07:18:13;;;;;;;1.35;1.35;;;;;;;2.69;100.00;99545.47;4915969;29;20537;-71
2022/01/20 07:20:38;;;;;;;1.27;1.23;;;;;;;2.68;100.00;99541.19;4915797;29;20384;-71
2022/01/20 07:23:04;;;;;;;1.08;1.08;;;;;;;2.66;100.00;99535.16;4916060;29;20032;-71
2022/01/20 07:25:29;;;;;;;1.35;1.35;;;;;;;2.77;100.00;99550.78;4915984;29;20036;-71
2022/01/20 07:27:54;;;;;;;0.93;0.93;;;;;;;2.69;100.00;99554.84;4915867;29;20035;-71
2022/01/20 07:30:20;;;;;;;0.90;0.90;;;;;;;2.69;100.00;99557.41;4915775;29;20032;-71
2022/01/20 07:32:47;;;;;;;0.93;0.93;;;;;;;2.62;100.00;99564.06;4915889;29;20024;-71
2022/01/20 07:35:12;;;;;;;1.05;1.05;;;;;;;2.74;100.00;99560.94;4915636;29;20035;-72
2022/01/20 07:37:37;;;;;;;1.77;1.67;;;;;;;2.59;100.00;99561.41;4915727;29;20043;-71
2022/01/20 07:40:04;;;;;;;3.20;0.88;;;;;;;2.80;100.00;99564.53;4915875;29;20481;-71
2022/01/20 07:42:29;;;;;;;1.10;1.10;;;;;;;2.79;100.00;99578.13;4915802;29;20024;-71
2022/01/20 07:44:54;;;;;;;2.40;1.20;;;;;;;2.89;100.00;99589.47;4915754;29;20100;-71
2022/01/20 07:47:20;;;;;;;2.35;2.20;;;;;;;2.99;100.00;99591.44;4916896;29;20036;-71
2022/01/20 07:49:45;;;;;;;1.38;1.30;;;;;;;2.91;100.00;99604.88;4921916;29;20090;-71
2022/01/20 07:52:12;;;;;;;1.10;1.10;;;;;;;2.94;99.33;99607.50;4922203;29;20028;-71
2022/01/20 07:54:38;;;;;;;0.95;0.95;;;;;;;2.89;98.67;99604.81;4922112;29;20031;-72
2022/01/20 07:57:04;;;;;;;0.73;0.73;;;;;;;3.00;98.79;99607.69;4921786;29;20425;-72
2022/01/20 07:59:30;;;;;;;1.00;0.98;;;;;;;2.97;99.44;99607.59;4922139;29;20034;-72
2022/01/20 08:01:55;;;;;;;1.02;1.02;;;;;;;3.01;98.73;99622.22;4921852;29;20028;-72
2022/01/20 08:04:21;;;;;;;1.48;1.48;;;;;;;3.21;98.42;99602.22;4920509;29;20508;-72
2022/01/20 08:06:46;;;;;;;2.05;1.95;;;;;;;3.13;97.26;99614.84;4921777;29;20060;-71
2022/01/20 08:09:11;;;;;;;1.88;1.15;;;;;;;3.33;95.76;99608.50;4922021;29;20032;-72
2022/01/20 08:11:37;;;;;;;1.35;1.30;;;;;;;3.35;95.90;99600.88;4921983;29;20024;-72
2022/01/20 08:14:02;;;;;;;0.70;0.70;;;;;;;3.59;95.50;99606.56;4921973;29;20099;-72
2022/01/20 08:16:27;;;;;;;0.60;0.60;;;;;;;3.45;94.34;99607.94;4921419;29;20026;-72
2022/01/20 08:18:55;;;;;;;0.55;0.55;;;;;;;3.39;95.38;99610.38;4923361;29;20127;-72
2022/01/20 08:21:21;;;;;;;1.27;1.17;;;;;;;3.28;95.45;99617.75;4921724;29;20032;-72
2022/01/20 08:23:46;;;;;;;0.90;0.90;;;;;;;3.29;96.28;99616.97;4921756;29;20541;-72
2022/01/20 08:26:11;;;;;;;1.00;1.00;;;;;;;3.33;96.35;99623.88;4921532;29;20024;-72
2022/01/20 08:28:37;;;;;;;0.60;0.60;;;;;;;3.27;95.99;99631.41;4921595;29;20147;-73
2022/01/20 08:31:02;;;;;;;0.70;0.70;;;;;;;3.47;94.53;99620.78;4921802;29;20024;-72
2022/01/20 08:33:28;;;;;;;10.98;1.95;;;;;;;3.68;93.86;99623.88;4921426;29;20024;-72
2022/01/20 08:35:53;;;;;;;1.15;1.15;;;;;;;3.57;91.96;99627.84;4921430;29;20075;-71
2022/01/20 08:38:19;;;;;;;2.15;2.05;;;;;;;3.74;92.39;99624.00;4921495;29;20068;-72
2022/01/20 08:40:45;;;;;;;1.63;1.35;;;;;;;3.72;93.20;99628.19;4921554;29;20126;-72
2022/01/20 08:43:11;;;;;;;1.23;1.23;;;;;;;3.60;93.23;99638.19;4921486;29;20063;-72
2022/01/20 08:45:38;;;;;;;1.58;1.48;;;;;;;3.47;93.08;99643.84;4921482;29;20028;-72
2022/01/20 08:48:04;;;;;;;0.70;0.70;;;;;;;3.46;93.95;99644.69;4921247;29;20374;-72
2022/01/20 08:50:31;;;;;;;0.85;0.85;;;;;;;3.45;94.27;99643.81;4921480;29;20032;-71
2022/01/20 08:52:57;;;;;;;2.22;2.03;;;;;;;3.46;93.75;99645.53;4921655;29;20028;-71
2022/01/20 08:55:26;;;;;;;4.45;2.65;;;;;;;3.32;95.27;99652.88;4921445;29;20397;-72
2022/01/20 08:57:52;;;;;;;3.22;1.77;;;;;;;3.33;93.48;99654.59;4935931;29;20032;-71
2022/01/20 09:00:19;;;;;;;1.67;1.58;;;;;;;3.49;93.97;99657.56;4918771;29;20040;-72
2022/01/20 09:02:44;;;;;;;2.17;1.60;;;;;;;3.47;94.73;99661.78;4918684;29;20032;-72
2022/01/20 09:05:10;;;;;;;0.93;0.93;;;;;;;3.51;93.59;99654.19;4918234;29;20504;-72
2022/01/20 09:07:35;;;;;;;1.17;0.90;;;;;;;3.51;93.47;99661.03;4918486;29;20087;-71
2022/01/20 09:10:04;;;;;;;2.72;1.42;;;;;;;3.53;94.01;99669.59;4918229;29;20024;-72
2022/01/20 09:17:42;;;;;;;0.70;0.70;;;;;;;3.66;93.19;99666.50;4918439;29;20166;-71
2022/01/20 09:20:08;;;;;;;3.30;1.23;;;;;;;3.59;92.58;99667.22;4918537;29;20044;-71
2022/01/20 09:22:34;;;;;;;3.00;1.77;;;;;;;3.59;93.18;99662.09;4916910;29;20067;-71
2022/01/20 09:24:59;;;;;;;1.20;1.13;;;;;;;3.76;91.14;99660.78;4918066;29;20032;-72
2022/01/20 09:27:24;;;;;;;0.80;0.80;;;;;;;3.78;89.90;99659.13;4918393;29;20039;-71
2022/01/20 09:29:50;;;;;;;2.75;1.52;;;;;;;3.62;90.04;99657.00;4917684;29;20036;-71
2022/01/20 09:32:17;;;;;;;2.75;1.00;;;;;;;3.76;90.15;99660.78;4917857;29;20066;-71
2022/01/20 09:34:43;;;;;;;2.03;1.23;;;;;;;3.63;89.02;99658.78;4917915;29;20035;-68
2022/01/20 09:37:08;;;;;;;3.00;0.93;;;;;;;3.67;89.42;99655.41;4917979;29;20024;-67
2022/01/20 09:39:37;;;;;;;1.05;1.05;;;;;;;3.67;90.13;99655.41;4917601;29;20485;-67
2022/01/20 09:42:04;;;;;;;1.48;1.33;;;;;;;3.47;89.35;99657.50;4917551;29;20366;-67
2022/01/20 09:44:29;;;;;;;0.82;0.82;;;;;;;3.44;89.49;99657.44;4917496;29;20510;-68
2022/01/20 09:46:55;;;;;;;0.90;0.90;;;;;;;3.45;89.33;99648.06;4917239;29;20385;-67
2022/01/20 09:49:20;;;;;;;1.00;1.00;;;;;;;3.54;89.43;99648.28;4917463;29;20069;-67
2022/01/20 09:51:45;;;;;;;0.98;0.98;;;;;;;3.57;89.32;99648.34;4917454;29;20023;-67
2022/01/20 09:54:11;;;;;;;3.83;1.17;;;;;;;3.52;87.57;99649.94;4917465;29;20047;-67
2022/01/20 09:56:38;;;;;;;1.85;0.95;;;;;;;3.55;89.32;99652.59;4917162;29;20039;-67
2022/01/20 09:59:04;;;;;;;2.45;1.90;;;;;;;3.65;87.55;99651.97;4917224;29;20024;-68
2022/01/20 10:01:39;;;;;;;0.80;0.80;;;;;;;3.82;87.35;99652.34;4917129;29;20030;-67
2022/01/20 10:04:04;;;;;;;3.33;1.30;;;;;;;3.85;87.00;99655.00;4915768;29;20083;-67
2022/01/20 10:06:29;;;;;;;0.70;0.70;;;;;;;3.93;86.85;99657.75;4917077;29;20032;-67
2022/01/20 10:09:02;;;;;;;1.02;1.02;;;;;;;3.79;86.92;99660.00;4917120;29;20055;-67
2022/01/20 10:11:29;;;;;;;0.80;0.80;;;;;;;3.88;87.42;99654.22;4916477;29;20079;-68
2022/01/20 10:13:57;;;;;;;1.67;1.58;;;;;;;3.84;87.08;99664.38;4917058;29;20051;-67
2022/01/20 10:16:22;;;;;;;1.00;1.00;;;;;;;3.96;87.47;99657.78;4916569;29;20103;-67
2022/01/20 10:19:00;;;;;;;0.70;0.70;;;;;;;4.00;87.39;99659.59;4916959;29;20114;-67
2022/01/20 10:21:31;;;;;;;0.60;0.60;;;;;;;4.05;87.95;99655.44;4916955;29;20107;-68
2022/01/20 10:24:07;;;;;;;0.52;0.52;;;;;;;4.07;86.78;99661.50;4916782;29;20043;-67
2022/01/20 10:26:33;;;;;;;0.60;0.60;;;;;;;4.01;87.45;99674.16;4916706;29;20031;-67
2022/01/20 10:29:10;;;;;;;0.93;0.65;;;;;;;3.98;87.21;99676.66;4916539;29;20024;-67
2022/01/20 10:31:46;;;;;;;0.95;0.85;;;;;;;3.94;86.27;99679.97;4916743;29;20021;-67
2022/01/20 10:34:30;;;;;;;0.80;0.80;;;;;;;3.85;87.63;99666.09;4916511;29;20365;-68
2022/01/20 10:37:01;;;;;;;1.40;1.30;;;;;;;3.73;87.30;99660.72;4916780;29;20035;-67
2022/01/20 10:39:38;;;;;;;1.15;1.15;;;;;;;4.04;86.79;99656.28;4916532;29;20024;-68
2022/01/20 10:42:10;;;;;;;1.02;1.02;;;;;;;3.98;84.41;99663.84;4916570;29;20493;-67
2022/01/20 10:44:52;;;;;;;0.50;0.50;;;;;;;3.99;84.76;99657.88;4916921;29;20043;-67
2022/01/20 10:47:19;;;;;;;1.15;1.15;;;;;;;4.11;85.28;99656.47;4908839;29;20487;-68
2022/01/20 10:49:45;;;;;;;1.27;1.27;;;;;;;4.22;84.00;99655.81;4916588;29;20027;-67
2022/01/20 10:52:13;;;;;;;0.50;0.50;;;;;;;4.26;84.28;99643.09;4916428;29;20035;-67
2022/01/20 10:54:47;;;;;;;0.80;0.80;;;;;;;4.44;83.21;99644.31;4916323;29;20034;-67
2022/01/20 10:57:16;;;;;;;7.53;2.05;;;;;;;4.52;82.68;99645.34;4916207;29;20039;-67
2022/01/20 10:59:47;;;;;;;0.93;0.93;;;;;;;4.44;82.46;99628.91;4916093;29;20127;-67
2022/01/20 11:02:13;;;;;;;0.60;0.60;;;;;;;3.96;83.07;99637.28;4916024;29;20469;-67
2022/01/20 11:04:39;;;;;;;1.00;1.00;;;;;;;4.09;83.54;99644.44;4930609;29;20083;-67
2022/01/20 11:07:07;;;;;;;1.05;1.00;;;;;;;4.02;84.29;99637.44;4914890;29;20481;-68
2022/01/20 11:09:36;;;;;;;0.68;0.68;;;;;;;4.08;83.32;99637.56;4915808;29;20076;-68
2022/01/20 11:12:03;;;;;;;0.65;0.65;;;;;;;4.16;83.95;99636.06;4915028;29;20028;-68
2022/01/20 11:14:31;;;;;;;0.85;0.85;;;;;;;4.02;83.72;99628.06;4915968;29;20036;-67
2022/01/20 11:16:58;;;;;;;2.03;1.92;;;;;;;3.94;83.89;99628.72;4914977;29;20052;-68
2022/01/20 11:19:24;;;;;;;3.85;1.00;;;;;;;3.86;83.75;99624.25;4915669;29;20031;-68
2022/01/20 11:21:50;;;;;;;0.50;0.50;;;;;;;3.88;83.12;99628.56;4915354;29;20028;-67
2022/01/20 11:24:16;;;;;;;0.50;0.50;;;;;;;3.90;83.53;99627.75;4915513;29;20032;-67
2022/01/20 11:27:10;;;;;;;1.17;1.17;;;;;;;3.82;83.33;99625.03;4915645;29;20044;-67
2022/01/20 11:29:47;;;;;;;0.77;0.77;;;;;;;3.90;83.92;99626.91;4966271;23;20473;-70
2022/01/20 11:32:24;;;;;;;1.08;1.08;;;;;;;3.97;83.76;99618.53;4915260;29;20055;-70
2022/01/20 11:35:03;;;;;;;2.70;1.55;;;;;;;4.10;83.78;99608.53;4907922;29;20032;-70
2022/01/20 11:37:53;;;;;;;1.80;1.63;;;;;;;4.30;82.36;99598.72;4915749;29;20028;-70
2022/01/20 11:40:21;;;;;;;1.02;1.02;;;;;;;4.58;81.85;99599.25;4915750;29;20062;-70
2022/01/20 11:42:57;;;;;;;1.40;1.40;;;;;;;4.70;80.13;99609.75;4915858;29;20449;-70
2022/01/20 11:45:32;;;;;;;3.95;1.50;;;;;;;4.64;81.25;99614.75;4915704;29;20091;-70
2022/01/20 11:47:57;;;;;;;0.60;0.60;;;;;;;4.54;80.71;99597.47;4916066;29;20024;-70
2022/01/20 11:50:23;;;;;;;0.93;0.93;;;;;;;4.98;80.20;99597.41;4914465;29;20100;-70
2022/01/20 11:52:48;;;;;;;0.75;0.75;;;;;;;5.16;79.07;99584.88;4915826;29;20099;-70
2022/01/20 11:55:16;;;;;;;0.80;0.75;;;;;;;5.43;77.41;99573.34;4915819;29;20127;-70
2022/01/20 11:57:42;;;;;;;0.98;0.98;;;;;;;5.68;75.96;99580.56;4915429;29;20028;-70
2022/01/20 12:00:28;;;;;;;0.75;0.75;;;;;;;6.01;75.70;99579.34;4930254;29;20042;-70
2022/01/20 12:02:54;;;;;;;0.50;0.50;;;;;;;5.59;75.88;99571.00;4915289;29;20481;-70
2022/01/20 12:05:26;;;;;;;0.90;0.90;;;;;;;5.41;76.25;99566.47;4903995;29;20088;-70
2022/01/20 12:08:20;;;;;;;3.38;2.20;;;;;;;4.93;76.37;99565.66;4896553;29;20033;-70
2022/01/20 12:11:04;;;;;;;0.93;0.93;;;;;;;4.89;77.44;99565.63;4896836;29;20029;-70
2022/01/20 12:13:30;;;;;;;1.08;1.08;;;;;;;4.64;77.59;99563.44;4896851;29;20048;-70
2022/01/20 12:16:00;;;;;;;1.15;1.15;;;;;;;4.56;79.41;99555.59;4896525;29;20032;-70
2022/01/20 12:18:26;;;;;;;0.70;0.70;;;;;;;4.42;79.15;99561.31;4896579;29;20478;-70
2022/01/20 12:20:52;;;;;;;0.60;0.60;;;;;;;4.38;79.16;99561.25;4896421;29;20116;-70
2022/01/20 12:23:19;;;;;;;0.85;0.85;;;;;;;3.25;86.41;99596.38;4896576;29;20028;-70
2022/01/20 12:25:45;;;;;;;0.60;0.60;;;;;;;2.41;92.45;99637.63;4896561;29;20080;-70
2022/01/20 12:28:13;;;;;;;1.08;0.90;;;;;;;1.99;94.26;99635.56;4847212;29;20141;-71
2022/01/20 12:30:48;;;;;;;0.70;0.70;;;;;;;1.98;95.71;99638.91;4878285;29;20113;-70
2022/01/20 12:33:15;;;;;;;0.60;0.60;;;;;;;1.90;96.93;99656.59;4892887;29;20039;-70
2022/01/20 12:35:49;;;;;;;0.95;0.95;;;;;;;1.82;96.52;99641.84;4885562;29;20115;-70
2022/01/20 12:38:37;;;;;;;0.57;0.57;;;;;;;1.78;96.09;99641.75;4881260;29;20088;-70
2022/01/20 12:41:04;;;;;;;0.57;0.57;;;;;;;1.78;94.95;99646.84;4880981;29;20048;-70
2022/01/20 12:43:35;;;;;;;0.60;0.60;;;;;;;1.96;93.97;99643.13;4881222;29;20059;-70
2022/01/20 12:46:00;;;;;;;0.57;0.57;;;;;;;2.09;93.69;99641.81;4881104;29;20547;-70
2022/01/20 12:48:26;;;;;;;0.60;0.60;;;;;;;2.06;93.30;99652.81;4881203;29;20036;-70
2022/01/20 12:50:51;;;;;;;0.77;0.77;;;;;;;2.05;94.70;99671.53;4881262;29;20151;-70
2022/01/20 12:53:18;;;;;;;0.80;0.80;;;;;;;2.09;95.99;99673.34;4881531;29;20487;-70
2022/01/20 12:55:51;;;;;;;0.75;0.75;;;;;;;2.07;96.32;99674.97;4880960;29;20056;-70
2022/01/20 12:58:16;;;;;;;0.60;0.60;;;;;;;2.04;96.25;99669.78;4880902;29;20502;-70
2022/01/20 13:00:41;;;;;;;1.70;1.63;;;;;;;2.04;95.63;99669.78;4880854;29;20029;-70
2022/01/20 13:03:07;;;;;;;0.52;0.52;;;;;;;2.03;95.77;99668.94;4892872;29;20136;-70
2022/01/20 13:05:33;;;;;;;0.60;0.60;;;;;;;2.14;97.23;99671.81;4880783;29;20040;-70
2022/01/20 13:08:00;;;;;;;0.50;0.50;;;;;;;2.24;95.53;99668.69;4880864;29;20033;-70
2022/01/20 13:10:34;;;;;;;0.73;0.73;;;;;;;2.30;95.25;99666.31;4880798;29;20120;-70
2022/01/20 13:13:05;;;;;;;0.77;0.77;;;;;;;2.42;94.82;99668.38;4881147;29;20371;-70
2022/01/20 13:15:31;;;;;;;0.80;0.80;;;;;;;2.46;94.81;99671.88;4880645;29;20112;-70
2022/01/20 13:18:07;;;;;;;1.95;0.88;;;;;;;2.36;94.38;99664.75;4880590;29;20040;-70
2022/01/20 13:20:32;;;;;;;0.70;0.70;;;;;;;2.36;95.22;99667.31;4880470;29;20025;-70
2022/01/20 13:25:48;;;;;;;;;;;;;;;2.04;95.48;99674.91;4881076;29;20032;-70
2022/01/20 13:28:16;;;;;;;0.90;0.90;;;;;;;1.96;95.64;99672.09;4880582;29;19916;-70
2022/01/20 13:30:50;;;;;;;0.73;0.73;;;;;;;1.86;96.22;99672.66;4880317;29;20032;-70
2022/01/20 13:33:17;;;;;;;0.60;0.60;;;;;;;1.91;96.91;99668.53;4892384;29;20550;-70
2022/01/20 13:35:45;;;;;;;0.95;0.95;;;;;;;1.79;96.14;99674.16;4894572;29;20099;-70
2022/01/20 13:38:10;;;;;;;0.90;0.90;;;;;;;1.74;97.66;99665.47;4899113;29;20074;-70
2022/01/20 13:40:37;;;;;;;0.60;0.60;;;;;;;1.70;96.92;99666.19;4898926;29;20087;-70
2022/01/20 13:45:45;;;;;;;0.50;0.50;;;;;;;1.67;98.08;99663.53;4898003;29;20454;-70
2022/01/20 13:48:13;;;;;;;0.90;0.90;;;;;;;1.77;97.89;99655.34;4898860;29;20482;-70
2022/01/20 13:50:41;;;;;;;0.60;0.60;;;;;;;1.88;98.07;99662.47;4898632;29;20036;-70
2022/01/20 13:53:26;;;;;;;0.85;0.85;;;;;;;1.88;97.64;99662.47;4899006;29;20032;-70
2022/01/20 13:55:52;;;;;;;1.05;1.05;;;;;;;1.88;98.10;99667.56;4898554;29;20036;-70
2022/01/20 13:58:27;;;;;;;0.90;0.90;;;;;;;1.85;97.96;99667.50;4897484;29;20394;-70
2022/01/20 14:00:53;;;;;;;0.70;0.70;;;;;;;1.91;98.41;99660.88;4898417;29;20372;-70
2022/01/20 14:03:20;;;;;;;1.23;1.23;;;;;;;1.86;98.79;99670.09;4898378;29;20025;-70
2022/01/20 14:05:45;;;;;;;0.80;0.80;;;;;;;1.89;98.39;99667.66;4898190;29;20398;-70
2022/01/20 14:08:11;;;;;;;0.90;0.90;;;;;;;2.08;98.04;99670.72;4898528;29;20201;-70
2022/01/20 14:10:37;;;;;;;1.65;1.55;;;;;;;2.13;98.64;99675.19;4898479;29;20036;-70
2022/01/20 14:13:03;;;;;;;0.70;0.70;;;;;;;2.13;98.40;99672.63;4898327;29;20043;-70
2022/01/20 14:15:29;;;;;;;0.60;0.60;;;;;;;2.11;97.43;99681.06;4898320;29;20024;-70
2022/01/20 14:17:57;;;;;;;0.60;0.60;;;;;;;2.13;96.60;99690.53;4898130;29;20036;-70
2022/01/20 14:20:27;;;;;;;1.05;1.05;;;;;;;2.14;97.20;99692.25;4897497;29;20024;-70
2022/01/20 14:22:54;;;;;;;0.63;0.63;;;;;;;2.13;96.98;99690.53;4882336;29;20040;-70
2022/01/20 14:25:22;;;;;;;1.02;1.02;;;;;;;2.01;97.67;99697.81;4881435;29;20041;-70
2022/01/20 14:27:49;;;;;;;0.68;0.68;;;;;;;1.91;97.68;99706.00;4890117;29;20060;-70
2022/01/20 14:30:15;;;;;;;1.13;1.13;;;;;;;1.59;98.67;99705.81;4898078;29;20393;-70
2022/01/20 14:32:41;;;;;;;1.58;1.48;;;;;;;1.63;99.62;99712.78;4897935;29;20025;-70
2022/01/20 14:35:08;;;;;;;0.80;0.80;;;;;;;1.78;99.91;99715.81;4897181;29;20028;-70
2022/01/20 14:37:37;;;;;;;2.38;2.25;;;;;;;1.79;99.76;99725.25;4884288;29;20035;-70
2022/01/20 14:40:08;;;;;;;0.50;0.50;;;;;;;1.72;99.31;99732.66;4879197;29;20025;-70
2022/01/20 14:42:34;;;;;;;1.73;1.63;;;;;;;1.53;99.23;99736.28;4879323;29;20029;-70
2022/01/20 14:45:00;;;;;;;0.50;0.50;;;;;;;1.56;99.22;99736.41;4883273;29;20102;-70
2022/01/20 14:47:25;;;;;;;0.95;0.95;;;;;;;1.68;99.40;99731.69;4889671;29;20035;-70
2022/01/20 14:49:50;;;;;;;7.55;1.23;;;;;;;1.71;99.17;99721.56;4897757;29;20033;-70
2022/01/20 14:52:16;;;;;;;0.65;0.65;;;;;;;1.73;99.99;99725.03;4896955;29;20019;-70
2022/01/20 14:54:41;;;;;;;1.08;1.05;;;;;;;1.79;99.49;99730.34;4903985;29;20036;-70
2022/01/20 14:57:07;;;;;;;1.33;1.23;;;;;;;1.91;99.58;99723.91;4897134;29;20040;-70
2022/01/20 14:59:33;;;;;;;0.80;0.80;;;;;;;1.78;99.32;99718.38;4896771;29;20048;-70
2022/01/20 15:02:00;;;;;;;2.03;1.83;;;;;;;1.96;99.28;99714.69;4897231;29;20113;-70
2022/01/20 15:04:25;;;;;;;0.93;0.93;;;;;;;1.93;99.49;99714.56;4896602;29;20020;-70
2022/01/20 15:06:51;;;;;;;1.58;1.35;;;;;;;2.01;99.68;99708.91;4889095;29;20501;-71
2022/01/20 15:09:16;;;;;;;0.82;0.82;;;;;;;2.02;98.72;99713.19;4878525;29;20048;-70
2022/01/20 15:11:41;;;;;;;0.75;0.75;;;;;;;1.95;98.63;99712.97;4888055;29;20457;-70
2022/01/20 15:14:08;;;;;;;1.23;1.17;;;;;;;2.08;99.02;99732.97;4887517;29;20033;-70
2022/01/20 15:16:33;;;;;;;0.68;0.68;;;;;;;1.92;97.92;99740.97;4880642;29;20039;-70
2022/01/20 15:18:59;;;;;;;0.70;0.70;;;;;;;1.90;98.70;99737.50;4896087;29;20029;-70
2022/01/20 15:21:25;;;;;;;1.02;1.02;;;;;;;1.74;98.95;99737.00;4878563;29;20028;-70
2022/01/20 15:23:51;;;;;;;1.08;1.08;;;;;;;1.64;98.99;99737.50;4878583;29;20032;-70
2022/01/20 15:26:17;;;;;;;0.80;0.80;;;;;;;1.77;99.80;99738.78;4878444;29;20037;-70
2022/01/20 15:28:45;;;;;;;0.60;0.60;;;;;;;1.68;99.04;99741.88;4884195;29;20028;-70
2022/01/20 15:31:13;;;;;;;1.30;1.15;;;;;;;1.73;99.53;99734.38;4886484;29;20044;-70
2022/01/20 15:33:39;;;;;;;0.80;0.80;;;;;;;1.73;99.25;99745.47;4893995;29;20107;-70
2022/01/20 15:36:05;;;;;;;1.58;1.17;;;;;;;1.51;99.38;99737.94;4879666;29;20025;-70
2022/01/20 15:38:30;;;;;;;0.98;0.98;;;;;;;1.60;99.35;99729.72;4878406;29;20100;-70
2022/01/20 15:40:56;;;;;;;1.83;1.73;;;;;;;1.44;99.78;99728.31;4877951;29;20506;-70
2022/01/20 15:43:21;;;;;;;2.88;2.53;;;;;;;1.47;99.78;99728.44;4893133;29;20025;-70
2022/01/20 15:45:46;;;;;;;0.98;0.98;;;;;;;1.44;100.00;99738.53;4878144;29;20089;-70
2022/01/20 15:48:12;;;;;;;5.25;2.17;;;;;;;1.34;100.00;99739.03;4895393;29;20031;-70
2022/01/20 15:50:37;;;;;;;1.55;1.45;;;;;;;1.48;99.84;99745.47;4883117;29;20044;-70
2022/01/20 15:53:05;;;;;;;0.88;0.88;;;;;;;1.41;100.00;99748.66;4889861;29;20036;-70
2022/01/20 15:55:32;;;;;;;0.80;0.80;;;;;;;1.23;100.00;99764.19;4896605;29;20143;-70
2022/01/20 15:57:59;;;;;;;0.70;0.70;;;;;;;1.51;100.00;99768.56;4896909;29;20442;-70
2022/01/20 16:00:25;;;;;;;1.38;1.35;;;;;;;1.48;99.77;99768.47;4896083;29;20040;-70
2022/01/20 16:02:51;;;;;;;0.90;0.90;;;;;;;1.42;98.99;99766.56;4896486;29;20036;-70
2022/01/20 16:05:16;;;;;;;0.70;0.70;;;;;;;1.49;98.50;99759.97;4885742;29;20033;-70
2022/01/20 16:07:42;;;;;;;1.08;1.08;;;;;;;1.56;98.98;99756.81;4877816;29;20036;-70
2022/01/20 16:10:08;;;;;;;0.60;0.60;;;;;;;1.67;99.34;99765.72;4881047;29;20487;-70
2022/01/20 16:12:33;;;;;;;0.80;0.80;;;;;;;1.65;98.23;99767.34;4881965;29;20056;-70
2022/01/20 16:14:59;;;;;;;13.10;1.13;;;;;;;1.79;98.72;99768.69;4881830;29;20478;-70
2022/01/20 16:17:24;;;;;;;0.95;0.93;;;;;;;1.76;98.19;99773.69;4899317;29;20127;-70
2022/01/20 16:19:49;;;;;;;0.73;0.73;;;;;;;1.84;97.98;99775.59;4885078;29;20029;-70
2022/01/20 16:22:14;;;;;;;1.02;1.02;;;;;;;1.69;96.57;99781.97;4890727;29;20427;-70
2022/01/20 16:24:40;;;;;;;1.13;1.13;;;;;;;1.70;97.14;99796.47;4900243;29;20371;-70
2022/01/20 16:27:05;;;;;;;1.08;1.08;;;;;;;1.49;97.17;99793.16;4900245;29;20043;-70
2022/01/20 16:29:30;;;;;;;1.02;1.02;;;;;;;1.46;97.13;99795.63;4900238;29;20462;-70
2022/01/20 16:31:56;;;;;;;1.25;1.15;;;;;;;1.33;97.34;99798.56;4899387;29;20401;-70
2022/01/20 16:34:22;;;;;;;2.00;1.65;;;;;;;1.12;98.29;99799.56;4900063;29;20027;-70